createdAt,value
2022-08-17T00:00:58.603Z,99942.34
2022-08-17T00:06:24.506Z,99948.84
2022-08-17T00:12:40.660Z,99940.38
2022-08-17T00:17:30.468Z,99946.50
2022-08-17T00:23:06.191Z,99949.75
2022-08-17T00:28:28.027Z,99953.28
2022-08-17T00:33:55.449Z,99948.03
2022-08-17T00:39:17.280Z,99947.31
2022-08-17T00:44:39.115Z,99930.72
2022-08-17T00:50:01.067Z,99946.38
2022-08-17T00:55:25.281Z,99948.56
2022-08-17T01:00:48.110Z,99950.34
2022-08-17T01:06:10.517Z,99949.25
2022-08-17T01:11:32.684Z,99949.66
2022-08-17T01:16:56.322Z,99964.47
2022-08-17T01:22:26.439Z,99968.47
2022-08-17T01:27:49.193Z,99962.84
2022-08-17T01:33:11.071Z,99963.94
2022-08-17T01:38:34.479Z,99947.09
2022-08-17T01:44:05.231Z,99965.22
2022-08-17T01:49:27.065Z,99964.97
2022-08-17T01:54:51.179Z,99965.44
2022-08-17T02:00:14.121Z,99965.81
2022-08-17T02:05:36.407Z,99975.88
2022-08-17T02:10:58.350Z,99967.31
2022-08-17T02:16:20.208Z,99965.50
2022-08-17T02:21:46.122Z,99975.13
2022-08-17T02:27:07.983Z,99985.66
2022-08-17T02:32:29.773Z,99971.25
2022-08-17T02:37:51.859Z,99958.47
2022-08-17T02:43:17.811Z,99963.41
2022-08-17T02:48:39.672Z,99958.78
2022-08-17T02:54:38.941Z,99962.72
2022-08-17T02:59:48.368Z,99973.06
2022-08-17T03:05:13.358Z,99974.72
2022-08-17T03:10:35.278Z,99978.69
2022-08-17T03:15:57.106Z,99972.22
2022-08-17T03:21:18.926Z,99975.22
2022-08-17T03:26:40.911Z,99976.75
2022-08-17T03:32:12.186Z,99995.03
2022-08-17T03:37:34.054Z,100002.16
2022-08-17T03:42:55.954Z,100001.81
2022-08-17T03:48:17.797Z,100008.34
2022-08-17T03:53:51.888Z,100014.56
2022-08-17T03:59:21.195Z,100013.22
2022-08-17T04:04:44.437Z,100014.31
2022-08-17T04:10:06.851Z,100007.78
2022-08-17T04:15:29.494Z,100021.16
2022-08-17T04:20:51.359Z,100020.97
2022-08-17T04:26:53.196Z,100011.69
2022-08-17T04:31:55.739Z,100013.34
2022-08-17T04:37:17.570Z,100004.84
2022-08-17T04:42:39.401Z,100011.38
2022-08-17T04:48:01.422Z,100005.41
2022-08-17T04:53:23.258Z,100012.41
2022-08-17T04:58:47.738Z,100024.59
2022-08-17T05:04:33.537Z,100021.28
2022-08-17T05:09:56.592Z,100026.50
2022-08-17T05:15:18.531Z,100027.63
2022-08-17T05:20:41.771Z,100025.06
2022-08-17T05:26:04.411Z,100033.22
2022-08-17T05:31:30.477Z,100032.25
2022-08-17T05:36:52.291Z,100034.84
2022-08-17T05:42:19.010Z,100022.34
2022-08-17T05:47:42.734Z,100043.78
2022-08-17T05:53:24.790Z,100041.16
2022-08-17T05:58:54.727Z,100052.34
2022-08-17T06:04:41.148Z,100034.66
2022-08-17T06:10:12.483Z,100039.22
2022-08-17T06:16:04.537Z,100047.06
2022-08-17T06:21:50.952Z,100047.06
2022-08-17T06:27:38.826Z,100056.34
2022-08-17T06:33:07.557Z,100065.72
2022-08-17T06:39:05.897Z,100069.22
2022-08-17T06:44:43.284Z,100067.56
2022-08-17T06:50:22.016Z,100063.16
2022-08-17T06:55:49.248Z,100063.38
2022-08-17T07:01:16.829Z,100055.50
2022-08-17T07:07:00.979Z,100048.69
2022-08-17T07:12:27.866Z,100049.63
2022-08-17T07:17:50.051Z,100057.88
2022-08-17T07:23:11.814Z,100056.09
2022-08-17T07:28:35.450Z,100063.91
2022-08-17T07:34:06.047Z,100047.91
2022-08-17T07:39:28.031Z,100062.09
2022-08-17T07:44:54.509Z,100058.81
2022-08-17T07:50:28.854Z,100060.38
2022-08-17T07:55:53.153Z,100054.53
2022-08-17T08:01:15.482Z,100071.88
2022-08-17T08:06:49.643Z,100058.69
2022-08-17T08:12:24.181Z,100066.34
2022-08-17T08:17:57.015Z,100062.50
2022-08-17T08:23:37.108Z,100054.41
2022-08-17T08:29:17.959Z,100065.81
2022-08-17T08:35:04.384Z,100073.03
2022-08-17T08:40:38.112Z,100075.03
2022-08-17T08:46:14.840Z,100073.63
2022-08-17T08:51:56.678Z,100070.41
2022-08-17T08:57:40.220Z,100059.94
2022-08-17T09:03:08.014Z,100059.31
2022-08-17T09:08:46.712Z,100060.69
2022-08-17T09:14:45.383Z,100067.47
2022-08-17T09:20:28.137Z,100065.25
2022-08-17T09:26:26.930Z,100051.69
2022-08-17T09:31:58.148Z,100073.91
2022-08-17T09:37:49.094Z,100066.94
2022-08-17T09:43:37.929Z,100068.88
2022-08-17T09:49:08.205Z,100073.78
2022-08-17T09:54:40.830Z,100073.41
2022-08-17T10:00:14.477Z,100069.03
2022-08-17T10:05:43.651Z,100063.22
2022-08-17T10:11:33.890Z,100074.47
2022-08-17T10:17:02.866Z,100081.31
2022-08-17T10:22:53.044Z,100065.13
2022-08-17T10:28:22.823Z,100076.09
2022-08-17T10:33:57.475Z,100074.00
2022-08-17T10:39:30.655Z,100074.97
2022-08-17T10:45:01.299Z,100076.69
2022-08-17T10:50:55.367Z,100087.56
2022-08-17T10:56:19.673Z,100078.47
2022-08-17T11:02:04.089Z,100070.97
2022-08-17T11:07:56.453Z,100059.19
2022-08-17T11:13:38.444Z,100059.63
2022-08-17T11:19:30.528Z,100062.22
2022-08-17T11:24:54.103Z,100073.19
2022-08-17T11:30:44.392Z,100067.69
2022-08-17T11:36:30.727Z,100059.31
2022-08-17T11:42:10.494Z,100058.84
2022-08-17T11:47:57.000Z,100064.84
2022-08-17T11:53:37.896Z,100057.56
2022-08-17T11:59:00.188Z,100060.34
2022-08-17T12:04:22.017Z,100060.47
2022-08-17T12:09:48.634Z,100063.47
2022-08-17T12:15:28.807Z,100063.06
2022-08-17T12:21:21.390Z,100060.53
2022-08-17T12:26:52.477Z,100065.63
2022-08-17T12:32:17.747Z,100060.09
2022-08-17T12:37:47.127Z,100053.91
2022-08-17T12:43:21.283Z,100070.38
2022-08-17T12:48:59.280Z,100064.41
2022-08-17T12:54:27.930Z,100058.66
2022-08-17T12:59:54.037Z,100058.78
2022-08-17T13:05:23.856Z,100070.81
2022-08-17T13:11:03.631Z,100070.13
2022-08-17T13:16:31.172Z,100072.31
2022-08-17T13:21:55.838Z,100053.28
2022-08-17T13:27:20.306Z,100057.16
2022-08-17T13:32:45.683Z,100046.66
2022-08-17T13:38:11.824Z,100038.94
2022-08-17T13:43:39.141Z,100045.28
2022-08-17T13:49:09.714Z,100051.88
2022-08-17T13:54:37.525Z,100058.38
2022-08-17T14:00:17.445Z,100047.75
2022-08-17T14:05:39.617Z,100052.06
2022-08-17T14:11:01.490Z,100049.16
2022-08-17T14:16:23.351Z,100041.66
2022-08-17T14:21:46.567Z,100049.88
2022-08-17T14:27:08.736Z,100049.84
2022-08-17T14:32:34.687Z,100057.41
2022-08-17T14:37:56.909Z,100048.19
2022-08-17T14:43:19.061Z,100055.63
2022-08-17T14:48:40.898Z,100039.59
2022-08-17T14:54:02.912Z,100035.53
2022-08-17T14:59:24.783Z,100040.50
2022-08-17T15:04:46.569Z,100044.38
2022-08-17T15:10:08.777Z,100038.22
2022-08-17T15:15:31.262Z,100038.03
2022-08-17T15:20:53.573Z,100033.34
2022-08-17T15:26:15.408Z,100030.41
2022-08-17T15:31:37.362Z,100033.34
2022-08-17T15:36:59.173Z,100021.38
2022-08-17T15:42:22.457Z,100036.19
2022-08-17T15:47:44.346Z,100032.94
2022-08-17T15:53:06.232Z,100033.97
2022-08-17T15:58:29.974Z,100030.41
2022-08-17T16:04:04.559Z,100047.13
2022-08-17T16:09:29.216Z,100047.66
2022-08-17T16:14:51.435Z,100052.63
2022-08-17T16:20:20.625Z,100062.75
2022-08-17T16:25:53.236Z,100065.72
2022-08-17T16:31:16.075Z,100071.69
2022-08-17T16:36:37.930Z,100064.69
2022-08-17T16:41:59.865Z,100068.56
2022-08-17T16:47:21.686Z,100071.16
2022-08-17T16:52:44.371Z,100075.19
2022-08-17T16:58:07.135Z,100083.78
2022-08-17T17:03:31.104Z,100086.13
2022-08-17T17:08:59.690Z,100092.09
2022-08-17T17:14:29.890Z,100103.13
2022-08-17T17:20:02.832Z,100084.63
2022-08-17T17:25:52.137Z,100102.50
2022-08-17T17:31:16.631Z,100101.16
2022-08-17T17:36:49.820Z,100109.50
2022-08-17T17:42:19.961Z,100130.50
2022-08-17T17:47:42.529Z,100132.19
2022-08-17T17:53:09.269Z,100130.03
2022-08-17T17:59:01.505Z,100143.84
2022-08-17T18:04:45.168Z,100136.59
2022-08-17T18:10:30.230Z,100145.66
2022-08-17T18:15:53.644Z,100146.84
2022-08-17T18:21:19.652Z,100153.25
2022-08-17T18:26:55.461Z,100163.72
2022-08-17T18:32:25.748Z,100155.78
2022-08-17T18:37:52.242Z,100159.28
2022-08-17T18:43:27.468Z,100146.91
2022-08-17T18:49:05.629Z,100161.09
2022-08-17T18:54:27.526Z,100160.25
2022-08-17T18:59:49.631Z,100170.59
2022-08-17T19:05:29.946Z,100178.84
2022-08-17T19:11:10.014Z,100174.06
2022-08-17T19:16:46.065Z,100180.47
2022-08-17T19:22:29.252Z,100176.88
2022-08-17T19:28:27.550Z,100188.97
2022-08-17T19:33:50.351Z,100190.63
2022-08-17T19:39:38.163Z,100190.50
2022-08-17T19:45:08.288Z,100194.53
2022-08-17T19:50:45.075Z,100209.66
2022-08-17T19:56:26.737Z,100201.19
2022-08-17T20:01:53.202Z,100210.75
2022-08-17T20:07:19.999Z,100203.81
2022-08-17T20:12:43.708Z,100206.31
2022-08-17T20:18:14.050Z,100212.84
2022-08-17T20:23:52.875Z,100211.25
2022-08-17T20:29:14.659Z,100209.88
2022-08-17T20:34:38.092Z,100214.94
2022-08-17T20:40:00.001Z,100234.50
2022-08-17T20:45:21.822Z,100231.72
2022-08-17T20:50:52.619Z,100220.59
2022-08-17T20:56:42.337Z,100226.59
2022-08-17T21:02:17.503Z,100234.84
2022-08-17T21:07:54.631Z,100250.53
2022-08-17T21:13:29.912Z,100255.78
2022-08-17T21:18:57.406Z,100262.50
2022-08-17T21:24:37.832Z,100244.31
2022-08-17T21:30:06.686Z,100254.09
2022-08-17T21:35:50.803Z,100263.47
2022-08-17T21:41:26.838Z,100274.53
2022-08-17T21:46:51.072Z,100267.78
2022-08-17T21:52:18.402Z,100241.97
2022-08-17T21:57:41.769Z,100249.16
2022-08-17T22:03:25.529Z,100250.53
2022-08-17T22:09:00.948Z,100243.22
2022-08-17T22:14:53.164Z,100245.16
2022-08-17T22:20:18.278Z,100241.56
2022-08-17T22:25:56.940Z,100248.44
2022-08-17T22:31:21.705Z,100239.50
2022-08-17T22:36:43.587Z,100239.44
2022-08-17T22:42:12.177Z,100233.81
2022-08-17T22:47:34.808Z,100235.66
2022-08-17T22:53:00.965Z,100222.97
2022-08-17T22:58:24.755Z,100220.97
2022-08-17T23:03:55.750Z,100213.75
2022-08-17T23:09:17.575Z,100214.09
2022-08-17T23:14:40.923Z,100202.88
2022-08-17T23:20:04.794Z,100193.03
2022-08-17T23:25:32.131Z,100188.09
2022-08-17T23:30:54.005Z,100194.72
2022-08-17T23:36:16.583Z,100191.81
2022-08-17T23:41:38.726Z,100194.75
2022-08-17T23:47:00.982Z,100191.91
2022-08-17T23:52:22.918Z,100188.28
2022-08-17T23:57:44.837Z,100191.06
